Maersk Visby — 9V8827 — position and weather

sailwx.info

Track history (hours):
 
Tides and Currents Weather Stations Pressure Air Temp Water Temp Dewpoint Dewpoint Depression Visibility Wind Speed Wind Dir Waves Ship Positions

Maersk Visby

Last reported at 2016-Sep-19 07:31 UTC. Time now 2016-Sep-25 12:22 UTC.
Position S 33°55' E 018°26'.

Length 180 m; draft 9.5 m.

Type: Ship (hazmat cat A). MMSI: 564979000.

Date/timePositionNaut miles runAvg speedWind from/ knotsBaromVisibWave heightAir tempDewpointWater temp
2016-Sep-19 07:31S 33°55' E 018°26'0 0.0
2016-Sep-19 06:31S 33°55' E 018°26'0 0.0
2016-Sep-19 03:22S 33°55' E 018°26'0 0.0
2016-Sep-19 02:31S 33°55' E 018°26'0 0.0
2016-Sep-19 00:31S 33°55' E 018°26'0 0.0
2016-Sep-18 19:31S 33°55' E 018°26'0 0.0
2016-Sep-18 15:34S 33°55' E 018°26'0 0.0
2016-Sep-18 14:31S 33°55' E 018°26'0 0.0
2016-Sep-18 10:31S 33°55' E 018°26'0 0.0
2016-Sep-18 09:31S 33°55' E 018°26'0 0.0
2016-Sep-18 02:31S 33°55' E 018°26'61313.1
2016-Sep-16 03:33S 31°15' E 030°09'2120.6
2016-Sep-16 02:33S 30°59' E 030°24'3818.8
2016-Sep-16 00:32S 30°26' E 030°46'3517.5
2016-Sep-15 22:33S 29°56' E 031°07'5 5.3
2016-Sep-15 21:33S 29°52' E 031°02'0 0.0
2016-Sep-15 20:33S 29°52' E 031°02'0 0.0
2016-Sep-15 18:33S 29°52' E 031°02'0 0.0
2016-Sep-15 12:33S 29°52' E 031°02'0 0.0
2016-Sep-15 11:30S 29°52' E 031°02'0 0.0
2016-Sep-15 04:33S 29°52' E 031°02'0 0.0
2016-Sep-15 03:33S 29°52' E 031°02'0 0.0
2016-Sep-15 01:33S 29°52' E 031°02'0 0.0
2016-Sep-14 22:33S 29°52' E 031°02'0 0.0
2016-Sep-14 21:33S 29°52' E 031°02'0 0.0
2016-Sep-14 17:33S 29°52' E 031°02'0 0.0
2016-Sep-14 16:33S 29°52' E 031°02'0 0.0
2016-Sep-14 13:33S 29°52' E 031°02'0 0.0
2016-Sep-14 12:33S 29°52' E 031°02'0 0.0
2016-Sep-14 10:30S 29°52' E 031°02'0 0.0
2016-Sep-14 09:33S 29°52' E 031°02'0 0.0
2016-Sep-14 08:33S 29°52' E 031°02'0 0.0
2016-Sep-14 07:30S 29°52' E 031°02'0 0.0
2016-Sep-14 06:30S 29°52' E 031°02'0 0.0
2016-Sep-14 03:33S 29°52' E 031°02'0 0.0
2016-Sep-13 22:33S 29°52' E 031°02'0 0.0
2016-Sep-13 20:33S 29°52' E 031°02'0 0.0
2016-Sep-13 18:27S 29°52' E 031°02'0 0.0
2016-Sep-13 17:33S 29°52' E 031°02'0 0.0
2016-Sep-13 16:33S 29°52' E 031°02'0 0.0
2016-Sep-13 11:33S 29°52' E 031°02'0 0.0
2016-Sep-13 09:33S 29°52' E 031°02'0 0.0
2016-Sep-13 07:33S 29°52' E 031°02'0 0.0
2016-Sep-13 06:33S 29°52' E 031°02'0 0.0
2016-Sep-13 04:33S 29°52' E 031°02'0 0.0
2016-Sep-13 02:33S 29°52' E 031°02'0 0.0
2016-Sep-12 23:33S 29°52' E 031°02'0 0.0
2016-Sep-12 21:33S 29°52' E 031°02'0 0.0
2016-Sep-12 19:33S 29°52' E 031°02'0 0.0
2016-Sep-12 17:33S 29°52' E 031°02'0 0.0
2016-Sep-12 14:33S 29°52' E 031°02'0 0.0
2016-Sep-12 13:33S 29°52' E 031°02'0 0.0
2016-Sep-12 12:33S 29°52' E 031°02'0 0.0
2016-Sep-12 11:33S 29°52' E 031°02'0 0.0
2016-Sep-12 10:33S 29°52' E 031°03'0 0.0
2016-Sep-12 07:33S 29°52' E 031°02'0 0.0
2016-Sep-12 06:33S 29°52' E 031°02'0 0.0
2016-Sep-12 03:33S 29°52' E 031°02'0 0.0
2016-Sep-12 01:33S 29°52' E 031°02'0 0.0
2016-Sep-11 23:33S 29°52' E 031°02'0 0.0
2016-Sep-11 22:33S 29°52' E 031°02'0 0.0
2016-Sep-11 21:33S 29°52' E 031°02'0 0.0
2016-Sep-11 20:33S 29°52' E 031°02'0 0.0
2016-Sep-11 19:33S 29°52' E 031°02'0 0.0
2016-Sep-11 18:27S 29°52' E 031°02'0 0.0
2016-Sep-11 17:30S 29°52' E 031°02'0 0.0
2016-Sep-11 16:30S 29°52' E 031°02'0 0.0
2016-Sep-11 15:33S 29°52' E 031°02'0 0.0
2016-Sep-11 14:33S 29°52' E 031°02'6 5.9
2016-Sep-11 13:33S 29°48' E 031°07'1 1.0
2016-Sep-11 12:33S 29°49' E 031°07'2 1.9
2016-Sep-11 11:33S 29°47' E 031°08'1 0.6
2016-Sep-11 10:33S 29°47' E 031°08'0 0.0
2016-Sep-11 08:33S 29°47' E 031°08'0 0.0
2016-Sep-11 07:33S 29°47' E 031°08'0 0.0
2016-Sep-11 03:33S 29°47' E 031°08'0 0.0
2016-Sep-11 02:33S 29°47' E 031°08'0 0.0
2016-Sep-11 01:33S 29°47' E 031°08'0 0.0
2016-Sep-11 00:33S 29°47' E 031°08'0 0.0
2016-Sep-10 23:33S 29°47' E 031°08'0 0.1
2016-Sep-10 22:33S 29°47' E 031°08'0 0.0
2016-Sep-10 21:33S 29°47' E 031°08'0 0.1
2016-Sep-10 20:33S 29°47' E 031°08'0 0.1
2016-Sep-10 19:33S 29°47' E 031°08'0 0.0
2016-Sep-10 18:33S 29°47' E 031°08'0 0.1
2016-Sep-10 17:33S 29°47' E 031°08'0 0.0
2016-Sep-10 16:33S 29°47' E 031°08'0 0.0
2016-Sep-10 15:33S 29°47' E 031°08'0 0.0
2016-Sep-10 14:33S 29°47' E 031°08'0 0.0
2016-Sep-10 13:33S 29°47' E 031°08'0 0.0
2016-Sep-10 12:33S 29°47' E 031°08'0 0.0
2016-Sep-10 11:33S 29°47' E 031°08'0 0.0
2016-Sep-10 10:33S 29°47' E 031°08'0 0.0
2016-Sep-10 09:33S 29°47' E 031°08'0 0.0
2016-Sep-10 08:33S 29°47' E 031°08'0 0.0
2016-Sep-10 07:33S 29°47' E 031°08'0 0.0
2016-Sep-10 06:33S 29°47' E 031°08'0 0.0
2016-Sep-10 05:33S 29°47' E 031°08'0 0.0
2016-Sep-10 04:33S 29°47' E 031°08'0 0.0
2016-Sep-10 03:33S 29°47' E 031°08'0 0.0
2016-Sep-10 02:33S 29°47' E 031°08'0 0.0
2016-Sep-10 01:33S 29°47' E 031°08'0 0.0
2016-Sep-10 00:33S 29°47' E 031°08'0 0.0
2016-Sep-09 23:33S 29°47' E 031°08'0 0.0
2016-Sep-09 22:33S 29°47' E 031°08'0 0.0
2016-Sep-09 21:33S 29°47' E 031°08'0 0.0
2016-Sep-09 20:33S 29°47' E 031°08'0 0.0
2016-Sep-09 19:33S 29°47' E 031°08'0 0.0
2016-Sep-09 18:33S 29°47' E 031°08'0 0.0
2016-Sep-09 17:33S 29°47' E 031°08'0 0.1
2016-Sep-09 16:33S 29°47' E 031°08'0 0.0
2016-Sep-09 15:33S 29°47' E 031°08'0 0.0
2016-Sep-09 14:33S 29°47' E 031°08'0 0.0
2016-Sep-09 13:33S 29°47' E 031°08'0 0.0
2016-Sep-09 12:33S 29°47' E 031°08'0 0.0
2016-Sep-09 11:33S 29°47' E 031°08'0 0.0
2016-Sep-09 10:33S 29°47' E 031°08'5 5.4
2016-Sep-09 09:33S 29°52' E 031°09'1312.9
2016-Sep-09 08:33S 30°03' E 031°03'1312.7
2016-Sep-09 07:33S 30°14' E 030°55'  
Track history (hours):
 
Tides and Currents Weather Stations Pressure Air Temp Water Temp Dewpoint Dewpoint Depression Visibility Wind Speed Wind Dir Waves Ship Positions

Maersk Visby

Last reported at 2016-Sep-19 07:31 UTC. Time now 2016-Sep-25 12:22 UTC.
Position S 33°55' E 018°26'.

Length 180 m; draft 9.5 m.

Type: Ship (hazmat cat A). MMSI: 564979000.

Date/timePositionNaut miles runAvg speedWind from/ knotsBaromVisibWave heightAir tempDewpointWater temp
2016-Sep-19 07:31S 33°55' E 018°26'0 0.0
2016-Sep-19 06:31S 33°55' E 018°26'0 0.0
2016-Sep-19 03:22S 33°55' E 018°26'0 0.0
2016-Sep-19 02:31S 33°55' E 018°26'0 0.0
2016-Sep-19 00:31S 33°55' E 018°26'0 0.0
2016-Sep-18 19:31S 33°55' E 018°26'0 0.0
2016-Sep-18 15:34S 33°55' E 018°26'0 0.0
2016-Sep-18 14:31S 33°55' E 018°26'0 0.0
2016-Sep-18 10:31S 33°55' E 018°26'0 0.0
2016-Sep-18 09:31S 33°55' E 018°26'0 0.0
2016-Sep-18 02:31S 33°55' E 018°26'61313.1
2016-Sep-16 03:33S 31°15' E 030°09'2120.6
2016-Sep-16 02:33S 30°59' E 030°24'3818.8
2016-Sep-16 00:32S 30°26' E 030°46'3517.5
2016-Sep-15 22:33S 29°56' E 031°07'5 5.3
2016-Sep-15 21:33S 29°52' E 031°02'0 0.0
2016-Sep-15 20:33S 29°52' E 031°02'0 0.0
2016-Sep-15 18:33S 29°52' E 031°02'0 0.0
2016-Sep-15 12:33S 29°52' E 031°02'0 0.0
2016-Sep-15 11:30S 29°52' E 031°02'0 0.0
2016-Sep-15 04:33S 29°52' E 031°02'0 0.0
2016-Sep-15 03:33S 29°52' E 031°02'0 0.0
2016-Sep-15 01:33S 29°52' E 031°02'0 0.0
2016-Sep-14 22:33S 29°52' E 031°02'0 0.0
2016-Sep-14 21:33S 29°52' E 031°02'0 0.0
2016-Sep-14 17:33S 29°52' E 031°02'0 0.0
2016-Sep-14 16:33S 29°52' E 031°02'0 0.0
2016-Sep-14 13:33S 29°52' E 031°02'0 0.0
2016-Sep-14 12:33S 29°52' E 031°02'0 0.0
2016-Sep-14 10:30S 29°52' E 031°02'0 0.0
2016-Sep-14 09:33S 29°52' E 031°02'0 0.0
2016-Sep-14 08:33S 29°52' E 031°02'0 0.0
2016-Sep-14 07:30S 29°52' E 031°02'0 0.0
2016-Sep-14 06:30S 29°52' E 031°02'0 0.0
2016-Sep-14 03:33S 29°52' E 031°02'0 0.0
2016-Sep-13 22:33S 29°52' E 031°02'0 0.0
2016-Sep-13 20:33S 29°52' E 031°02'0 0.0
2016-Sep-13 18:27S 29°52' E 031°02'0 0.0
2016-Sep-13 17:33S 29°52' E 031°02'0 0.0
2016-Sep-13 16:33S 29°52' E 031°02'0 0.0
2016-Sep-13 11:33S 29°52' E 031°02'0 0.0
2016-Sep-13 09:33S 29°52' E 031°02'0 0.0
2016-Sep-13 07:33S 29°52' E 031°02'0 0.0
2016-Sep-13 06:33S 29°52' E 031°02'0 0.0
2016-Sep-13 04:33S 29°52' E 031°02'0 0.0
2016-Sep-13 02:33S 29°52' E 031°02'0 0.0
2016-Sep-12 23:33S 29°52' E 031°02'0 0.0
2016-Sep-12 21:33S 29°52' E 031°02'0 0.0
2016-Sep-12 19:33S 29°52' E 031°02'0 0.0
2016-Sep-12 17:33S 29°52' E 031°02'0 0.0
2016-Sep-12 14:33S 29°52' E 031°02'0 0.0
2016-Sep-12 13:33S 29°52' E 031°02'0 0.0
2016-Sep-12 12:33S 29°52' E 031°02'0 0.0
2016-Sep-12 11:33S 29°52' E 031°02'0 0.0
2016-Sep-12 10:33S 29°52' E 031°03'0 0.0
2016-Sep-12 07:33S 29°52' E 031°02'0 0.0
2016-Sep-12 06:33S 29°52' E 031°02'0 0.0
2016-Sep-12 03:33S 29°52' E 031°02'0 0.0
2016-Sep-12 01:33S 29°52' E 031°02'0 0.0
2016-Sep-11 23:33S 29°52' E 031°02'0 0.0
2016-Sep-11 22:33S 29°52' E 031°02'0 0.0
2016-Sep-11 21:33S 29°52' E 031°02'0 0.0
2016-Sep-11 20:33S 29°52' E 031°02'0 0.0
2016-Sep-11 19:33S 29°52' E 031°02'0 0.0
2016-Sep-11 18:27S 29°52' E 031°02'0 0.0
2016-Sep-11 17:30S 29°52' E 031°02'0 0.0
2016-Sep-11 16:30S 29°52' E 031°02'0 0.0
2016-Sep-11 15:33S 29°52' E 031°02'0 0.0
2016-Sep-11 14:33S 29°52' E 031°02'6 5.9
2016-Sep-11 13:33S 29°48' E 031°07'1 1.0
2016-Sep-11 12:33S 29°49' E 031°07'2 1.9
2016-Sep-11 11:33S 29°47' E 031°08'1 0.6
2016-Sep-11 10:33S 29°47' E 031°08'0 0.0
2016-Sep-11 08:33S 29°47' E 031°08'0 0.0
2016-Sep-11 07:33S 29°47' E 031°08'0 0.0
2016-Sep-11 03:33S 29°47' E 031°08'0 0.0
2016-Sep-11 02:33S 29°47' E 031°08'0 0.0
2016-Sep-11 01:33S 29°47' E 031°08'0 0.0
2016-Sep-11 00:33S 29°47' E 031°08'0 0.0
2016-Sep-10 23:33S 29°47' E 031°08'0 0.1
2016-Sep-10 22:33S 29°47' E 031°08'0 0.0
2016-Sep-10 21:33S 29°47' E 031°08'0 0.1
2016-Sep-10 20:33S 29°47' E 031°08'0 0.1
2016-Sep-10 19:33S 29°47' E 031°08'0 0.0
2016-Sep-10 18:33S 29°47' E 031°08'0 0.1
2016-Sep-10 17:33S 29°47' E 031°08'0 0.0
2016-Sep-10 16:33S 29°47' E 031°08'0 0.0
2016-Sep-10 15:33S 29°47' E 031°08'0 0.0
2016-Sep-10 14:33S 29°47' E 031°08'0 0.0
2016-Sep-10 13:33S 29°47' E 031°08'0 0.0
2016-Sep-10 12:33S 29°47' E 031°08'0 0.0
2016-Sep-10 11:33S 29°47' E 031°08'0 0.0
2016-Sep-10 10:33S 29°47' E 031°08'0 0.0
2016-Sep-10 09:33S 29°47' E 031°08'0 0.0
2016-Sep-10 08:33S 29°47' E 031°08'0 0.0
2016-Sep-10 07:33S 29°47' E 031°08'0 0.0
2016-Sep-10 06:33S 29°47' E 031°08'0 0.0
2016-Sep-10 05:33S 29°47' E 031°08'0 0.0
2016-Sep-10 04:33S 29°47' E 031°08'0 0.0
2016-Sep-10 03:33S 29°47' E 031°08'0 0.0
2016-Sep-10 02:33S 29°47' E 031°08'0 0.0
2016-Sep-10 01:33S 29°47' E 031°08'0 0.0
2016-Sep-10 00:33S 29°47' E 031°08'0 0.0
2016-Sep-09 23:33S 29°47' E 031°08'0 0.0
2016-Sep-09 22:33S 29°47' E 031°08'0 0.0
2016-Sep-09 21:33S 29°47' E 031°08'0 0.0
2016-Sep-09 20:33S 29°47' E 031°08'0 0.0
2016-Sep-09 19:33S 29°47' E 031°08'0 0.0
2016-Sep-09 18:33S 29°47' E 031°08'0 0.0
2016-Sep-09 17:33S 29°47' E 031°08'0 0.1
2016-Sep-09 16:33S 29°47' E 031°08'0 0.0
2016-Sep-09 15:33S 29°47' E 031°08'0 0.0
2016-Sep-09 14:33S 29°47' E 031°08'0 0.0
2016-Sep-09 13:33S 29°47' E 031°08'0 0.0
2016-Sep-09 12:33S 29°47' E 031°08'0 0.0
2016-Sep-09 11:33S 29°47' E 031°08'0 0.0
2016-Sep-09 10:33S 29°47' E 031°08'5 5.4
2016-Sep-09 09:33S 29°52' E 031°09'1312.9
2016-Sep-09 08:33S 30°03' E 031°03'1312.7
2016-Sep-09 07:33S 30°14' E 030°55'  

Dump ship's entire track history